Highlands Peak, California Weather observations

Data are for observation ending at time listed.
 Day   Time    Ave.   Ave.  Ave.  Vector   Max.   Stn.    Total    Solar   Ave.  
  of    of     Air    Rel.  Wind   Wind    Wind   Baro.  Precip.   Rad.    Soil  
Year   Day     Temp.  Hum.  Speed  Dir.    Gust   Pres.                    Temp. 
2017   (PST)    F      %     mph   deg.    mph     mb.     in.     W/m2     F   
------------------------------------------------------------------------------
  56    5:50   36.5    70    2.2   144      3.4   932.3    0.00       0    41.9
  56    6:00   36.8    71    2.0   145      2.6   932.3    0.00       0    41.8
  56    6:10   37.1    70    2.8   132      3.3   932.3    0.00       0    41.6
  56    6:20   36.9    68    2.4   120      3.1   932.3    0.00       0    41.6
  56    6:30   37.0    68    2.8    97      4.2   932.3    0.00       0    41.6
  56    6:40   36.9    66    3.1   107      4.1   932.1    0.00       2    41.5
  56    6:50   37.5    64    1.5   120      2.7   932.1    0.00       7    41.4
  56    7:00   37.7    65    2.3   212      4.3   932.1    0.00      17    41.5
  56    7:10   37.1    68    2.9   222      3.7   932.2    0.00      28    41.4
  56    7:20   37.1    69    3.4   197      6.3   932.2    0.00      50    41.4
  56    7:30   36.4    74    3.8   153      5.0   932.3    0.00      73    41.3
  56    7:40   36.5    76    1.5   119      2.9   932.3    0.00     108    41.4
  56    7:50   36.9    75    3.1   104      4.5   932.3    0.00     109    41.3
  56    8:00   36.9    74    4.6    84      6.3   932.2    0.00     100    41.2
  56    8:10   37.4    62    5.4    62      6.6   932.2    0.00      97    41.3
  56    8:20   37.9    62    4.1    56      5.6   932.2    0.00     100    41.3
  56    8:30   38.2    65    1.6   257      3.7   932.2    0.00     119    41.3
  56    8:40   38.4    68    1.4   209      2.2   932.1    0.00     133    41.3
  56    8:50   38.9    70    1.8   198      3.3   932.1    0.00     165    41.3
  56    9:00   39.1    70    1.9   190      3.5   932.0    0.00     189    41.3
  56    9:10   39.2    71    2.4   265      4.2   932.0    0.00     201    41.3
  56    9:20   39.2    70    2.2   263      4.1   931.9    0.00     175    41.3
  56    9:30   39.3    72    1.7   280      3.3   931.9    0.00     162    41.4
  56    9:40   39.5    74    1.6   276      3.1   931.9    0.00     194    41.5
  56    9:50   39.3    74    2.7   269      4.4   931.9    0.00     204    41.6
  56   10:00   39.4    74    2.4   259      4.2   931.9    0.00     248    41.7
  56   10:10   40.3    73    2.2   288      4.2   931.9    0.00     324    41.7
  56   10:20   40.9    72    1.9   265      4.0   931.8    0.00     295    41.8
  56   10:30   40.2    72    2.7   256      5.3   932.0    0.00     348    41.9
  56   10:40   40.6    70    3.3   252      5.8   932.1    0.00     352    42.0
  56   10:50   41.3    70    4.2   270      6.7   932.3    0.00     364    42.2
  56   11:00   41.0    68    2.7   254      5.3   932.2    0.00     345    42.3
  56   11:10   41.7    72    2.7   229      5.8   932.2    0.00     351    42.5
  56   11:20   42.2    72    3.4   229      7.4   932.2    0.00     361    42.7
  56   11:30   42.3    72    3.2   201      7.7   932.1    0.00     372    42.9
  56   11:40   42.1    72    2.9   199      6.6   932.0    0.00     414    43.1
  56   11:50   42.1    73    3.6   231      6.6   931.9    0.00     408    43.3
  56   12:00   42.9    72    2.1   224      6.5   931.8    0.00     385    43.4
  56   12:10   42.3    72    3.4   220      7.1   931.6    0.00     406    43.7
  56   12:20   42.8    70    3.1   225      5.7   931.7    0.00     566    43.9
  56   12:30   44.4    67    3.9   196      8.9   931.5    0.00     607    44.0
  56   12:40   44.0    66    3.1   172      6.9   931.4    0.00     487    44.3
  56   12:50   43.3    66    5.0   150      9.1   931.1    0.00     424    44.5
  56   13:00   43.3    68    5.3   157     10.2   930.7    0.00     474    44.8
  56   13:10   44.3    67    3.8   173      9.3   930.4    0.00     548    45.0
  56   13:20   44.9    66    3.6   209      8.1   930.1    0.00     554    45.2
  56   13:30   44.8    67    5.5   261      9.7   930.1    0.00     505    45.5
  56   13:40   43.9    68    6.3   269     10.4   929.9    0.00     471    45.8
  56   13:50   43.7    63    7.4   246     10.2   929.8    0.00     467    46.1
  56   14:00   43.1    63    7.3   251     10.4   929.7    0.00     584    46.4
  56   14:10   44.9    61    4.7   256     10.4   929.6    0.00     731    46.6
  56   14:20   45.2    60    6.0   234     10.7   929.5    0.00     681    46.9
  56   14:30   44.6    65    5.7   246     11.2   929.3    0.00     656    47.2
  56   14:40   45.6    64    4.5   242      9.3   929.1    0.00     629    47.4
  56   14:50   45.6    63    5.9   235     11.0   929.2    0.00     618    47.8
  56   15:00   43.5    69    9.8   241     15.6   929.3    0.00     416    48.3
  56   15:10   44.2    70    6.9   245     12.0   929.3    0.00     658    48.5
  56   15:20   44.3    69    9.5   268     14.7   929.5    0.00     558    48.7
  56   15:30   41.6    74    9.9   270     14.1   929.6    0.00     274    48.9
  56   15:40   41.2    75    8.8   265     13.8   929.7    0.00     385    49.1
  56   15:50   41.5    76    7.2   268     12.3   929.8    0.00     313    49.3
  56   16:00   41.8    74    8.2   273     12.0   929.8    0.00     360    49.4
  56   16:10   41.7    74    7.9   265     12.6   929.7    0.00     312    49.6
  56   16:20   41.5    75    8.3   272     12.0   929.6    0.00     290    49.7
  56   16:30   41.2    74    7.5   265     12.7   929.6    0.00     281    49.9
  56   16:40   41.6    73    6.8   261     12.2   929.4    0.00     249    50.0
  56   16:50   41.3    74    8.2   272     12.6   929.3    0.00     225    50.1
  56   17:00   40.6    77    7.9   272     11.5   929.4    0.00     158    50.1
  56   17:10   39.7    80    8.1   275     13.1   929.4    0.00      72    50.1
  56   17:20   38.6    83    5.9   279      8.6   929.4    0.00      49    49.9
  56   17:30   37.9    84    5.1   283      8.0   929.2    0.00      36    49.9
  56   17:40   37.6    85    4.9   276      6.9   929.2    0.00      19    49.9
  56   17:50   37.4    86    4.9   276      6.7   929.1    0.00      10    49.8
  56   18:00   37.2    86    3.6   288      5.2   929.2    0.00       3    49.8
  56   18:10   37.2    87    3.2   302      5.8   928.9    0.00       1    49.7
  56   18:20   37.1    87    3.1   305      4.3   928.9    0.00       0    49.6
  56   18:30   36.9    86    2.8   337      4.5   928.8    0.00       0    49.5
  56   18:40   36.8    87    3.7    41      5.3   928.6    0.00       0    49.4
  56   18:50   36.9    87    5.5    61      6.9   928.4    0.00       0    49.3
  56   19:00   37.4    85    4.3    54      6.1   928.6    0.00       0    49.2
  56   19:10   37.6    84    4.4    60      6.8   928.6    0.00       0    49.1
  56   19:20   37.6    83    3.9    51      5.9   928.6    0.00       0    49.0
  56   19:30   37.8    82    3.0    41      4.4   928.7    0.00       0    48.9
  56   19:40   37.4    84    3.1   244      4.4   928.7    0.00       0    48.8
  56   19:50   37.1    87    1.9   283      2.7   928.7    0.00       0    48.7
  56   20:00   36.9    87    1.9   353      2.7   928.6    0.00       0    48.6
  56   20:10   36.9    87    2.3    42      4.7   928.4    0.00       0    48.5
  56   20:20   37.1    85    5.1    54      6.9   928.3    0.00       0    48.4
  56   20:30   37.3    86    2.7    30      5.6   928.3    0.00       0    48.3
  56   20:40   37.4    86    3.4    28      5.5   928.1    0.00       0    48.2
  56   20:50   37.1    87    3.0   146      4.7   928.3    0.00       0    48.1
  56   21:00   37.0    84    2.8   200      4.7   928.6    0.00       0    48.0
  56   21:10   36.7    87    3.6   131      5.1   928.4    0.00       0    47.9
  56   21:20   36.3    90    3.5   105      4.9   928.0    0.00       0    47.7
  56   21:30   36.2    88    3.8   164      5.4   928.2    0.01       0    47.6
  56   21:40   36.3    90    4.2   205      5.6   928.7    0.00       0    47.6
  56   21:50   36.2    92    3.9   120      6.4   928.4    0.00       0    47.4
  56   22:00   35.7    92    5.7   109      6.6   928.2    0.01       0    46.9
  56   22:10   35.5    91    5.6   119      6.9   927.9    0.00       0    46.5
  56   22:20   35.5    92    4.4    83      6.6   927.7    0.01       0    46.6
  56   22:30   36.0    92   10.9    75     16.0   927.2    0.00       0    46.7
  56   22:40   37.2    87   13.5    79     25.4   927.1    0.00       0    46.6
  56   22:50   37.7    84   21.5    81     28.9   926.1    0.00       0    46.2
  56   23:00   37.5    84   17.1    79     28.1   926.7    0.00       0    46.0
  56   23:10   37.3    85   18.8    76     27.7   926.1    0.01       0    45.8
  56   23:20   37.0    86   21.0    79     30.2   925.9    0.02       0    45.2
  56   23:30   36.8    86   20.4    81     28.4   925.7    0.00       0    44.9
  56   23:40   37.0    86   15.5    74     26.5   925.9    0.01       0    45.2
  56   23:50   36.9    85   18.3    77     34.8   925.9    0.00       0    45.4
  57    0:00   36.6    85   19.3    78     30.5   926.0    0.01       0    44.8
  57    0:10   36.2    86   14.6    72     24.4   926.1    0.01       0    44.5
  57    0:20   36.3    86   14.6    82     22.8   926.3    0.01       0    44.3
  57    0:30   36.0    86   13.5    77     22.2   926.5    0.01       0    44.5
  57    0:40   36.2    86   14.5    78     22.6   926.6    0.01       0    44.5
  57    0:50   35.9    88   12.3    81     19.1   926.7    0.02       0    44.5
  57    1:00   35.9    88   12.9    84     19.9   926.7    0.01       0    44.4
  57    1:10   36.0    89    4.9    91     14.7   926.9    0.02       0    44.3
  57    1:20   36.0    88    1.3   106      3.4   927.0    0.00       0    44.4
  57    1:30   36.0    88    0.5   180      1.9   927.0    0.00       0    44.3
  57    1:40   36.2    85    2.0    62      4.6   926.6    0.00       0    44.3
  57    1:50   35.9    88    3.0    73      6.3   926.4    0.01       0    44.2
  57    2:00   35.9    87    4.2   275      6.9   926.6    0.00       0    44.1
  57    2:10   35.6    89    3.1   257      7.4   926.8    0.00       0    44.1
  57    2:20   35.7    89    1.9   337      4.5   926.7    0.00       0    44.0
  57    2:30   35.2    92    1.5   343      3.1   926.6    0.00       0    44.0
  57    2:40   34.9    93    2.3   334      4.9   926.4    0.00       0    44.0
  57    2:50   34.7    94    3.7    64      7.0   926.0    0.00       0    43.9
  57    3:00   35.2    89    6.8    71     14.0   925.7    0.00       0    43.7
  57    3:10   36.0    83    6.2    64     12.0   925.6    0.00       0    43.7
  57    3:20   36.3    82    5.8    71     11.2   925.5    0.00       0    43.6
  57    3:30   35.8    84    8.1    73     12.7   925.3    0.00       0    43.4
  57    3:40   35.7    83    9.3    70     16.1   925.1    0.00       0    43.4
  57    3:50   36.3    81    6.8    66     11.8   925.3    0.00       0    43.4
  57    4:00   36.4    80    5.4    60     11.8   925.5    0.00       0    43.3
  57    4:10   36.3    81    6.2    32     11.2   925.7    0.00       0    43.3
  57    4:20   36.2    83    4.8   350     10.5   925.9    0.00       0    43.2
  57    4:30   34.8    92    4.3   318      7.5   925.9    0.00       0    43.1
  57    4:40   34.7    93    3.9     8      7.2   925.8    0.00       0    43.0
  57    4:50   35.7    82    2.5    39      5.1   925.8    0.00       0    43.0
  57    5:00   36.5    81    3.0   306      4.7   925.9    0.00       0    42.9
  57    5:10   34.7    92    4.5   276      5.9   926.1    0.00       0    42.8
  57    5:20   34.3    94    6.0   288      7.9   926.2    0.00       0    42.7
  57    5:30   34.6    95    6.2   284      7.5   926.3    0.00       0    42.6
  57    5:40   34.7    96    4.7   311      7.5   926.5    0.00       0    42.6

Return to Highlands Peak graphs page.


Western Regional Climate Center,wrcc@dri.edu